Time;durP1;ratioP1;P1;durP2;ratioP2;P2;SDS_P1;SDS_P2;PMS_P1;PMS_P2;Temp;Humidity;BMP_temperature;BMP_pressure;BME280_temperature;BME280_humidity;BME280_pressure;Samples;Min_cycle;Max_cycle;Signal;HPM_P1;HPM_P2
2023/03/09 00:01:18;;;;;;;4.23;3.73;;;;;;;;;;5095307;28;20205;-88
2023/03/09 00:03:45;;;;;;;4.67;3.67;;;;;;;;;;5094056;28;20216;-88
2023/03/09 00:06:12;;;;;;;4.50;3.23;;;;;;;;;;5094626;28;20224;-89
2023/03/09 00:08:39;;;;;;;3.70;3.40;;;;;;;;;;5094663;28;20750;-89
2023/03/09 00:11:07;;;;;;;5.27;4.20;;;;;;;;;;5094752;28;20553;-88
2023/03/09 00:13:34;;;;;;;3.57;3.27;;;;;;;;;;5094735;28;20239;-89
2023/03/09 00:16:08;;;;;;;4.93;3.27;;;;;;;;;;5096108;28;20229;-88
2023/03/09 00:18:37;;;;;;;3.93;2.57;;;;;;;;;;5094622;28;20250;-88
2023/03/09 00:21:04;;;;;;;4.70;2.70;;;;;;;;;;5094675;28;20213;-89
2023/03/09 00:23:31;;;;;;;2.20;2.00;;;;;;;;;;5093972;28;20225;-89
2023/03/09 00:26:03;;;;;;;2.23;2.03;;;;;;;;;;5094283;28;20704;-89
2023/03/09 00:28:30;;;;;;;2.13;2.03;;;;;;;;;;5077307;28;20277;-89
2023/03/09 00:31:00;;;;;;;2.20;2.10;;;;;;;;;;5094475;28;20224;-89
2023/03/09 00:33:27;;;;;;;2.67;2.50;;;;;;;;;;5093474;28;20239;-89
2023/03/09 00:35:56;;;;;;;2.00;1.90;;;;;;;;;;5093615;28;20223;-89
2023/03/09 00:38:23;;;;;;;2.93;2.23;;;;;;;;;;5093559;28;20232;-88
2023/03/09 00:40:50;;;;;;;2.63;2.53;;;;;;;;;;5093436;28;20204;-88
2023/03/09 00:43:18;;;;;;;2.87;2.20;;;;;;;;;;5092578;28;20606;-89
2023/03/09 00:45:45;;;;;;;3.07;2.03;;;;;;;;;;5093501;28;20231;-88
2023/03/09 00:48:12;;;;;;;2.23;1.60;;;;;;;;;;5092945;28;20277;-89
2023/03/09 00:50:39;;;;;;;1.40;1.40;;;;;;;;;;5094127;28;20216;-89
2023/03/09 00:53:07;;;;;;;2.47;1.80;;;;;;;;;;5094711;28;20724;-88
2023/03/09 00:55:34;;;;;;;1.50;1.50;;;;;;;;;;5095568;28;20225;-87
2023/03/09 00:58:01;;;;;;;1.47;1.47;;;;;;;;;;5094991;28;20572;-88
2023/03/09 01:00:32;;;;;;;1.50;1.40;;;;;;;;;;5094726;28;20715;-87
2023/03/09 01:02:59;;;;;;;1.37;1.30;;;;;;;;;;5094711;28;20232;-87
2023/03/09 01:05:26;;;;;;;3.13;1.80;;;;;;;;;;5094711;28;20530;-87
2023/03/09 01:07:53;;;;;;;1.37;1.37;;;;;;;;;;5094027;28;20692;-91
2023/03/09 01:10:22;;;;;;;3.20;1.60;;;;;;;;;;5094554;28;20207;-88
2023/03/09 01:12:49;;;;;;;1.40;1.30;;;;;;;;;;5093370;28;20228;-87
2023/03/09 01:15:16;;;;;;;1.17;1.07;;;;;;;;;;5093480;28;20433;-90
2023/03/09 01:17:43;;;;;;;1.47;1.47;;;;;;;;;;5093611;28;20263;-87
2023/03/09 01:20:11;;;;;;;2.10;1.20;;;;;;;;;;5093682;28;20204;-88
2023/03/09 01:22:38;;;;;;;1.30;1.30;;;;;;;;;;5092626;28;20228;-87
2023/03/09 01:25:06;;;;;;;2.07;1.20;;;;;;;;;;5093321;28;20201;-87
2023/03/09 01:27:35;;;;;;;1.60;1.10;;;;;;;;;;5092505;28;20235;-88
2023/03/09 01:30:02;;;;;;;1.30;1.20;;;;;;;;;;5073557;28;20661;-87
2023/03/09 01:32:29;;;;;;;1.80;1.30;;;;;;;;;;5072227;28;20711;-89
2023/03/09 01:34:56;;;;;;;1.27;1.17;;;;;;;;;;5072676;28;20602;-88
2023/03/09 01:37:23;;;;;;;1.53;1.43;;;;;;;;;;5072307;28;20252;-88
2023/03/09 01:39:50;;;;;;;1.47;1.37;;;;;;;;;;5073598;28;20205;-88
2023/03/09 01:42:17;;;;;;;1.30;1.20;;;;;;;;;;5072590;28;20220;-88
2023/03/09 01:44:45;;;;;;;1.20;1.20;;;;;;;;;;5073224;28;20209;-88
2023/03/09 01:47:12;;;;;;;1.30;1.20;;;;;;;;;;5072837;28;20225;-88
2023/03/09 01:49:42;;;;;;;1.20;1.20;;;;;;;;;;5073639;28;20225;-88
2023/03/09 01:52:13;;;;;;;1.10;1.10;;;;;;;;;;5072608;28;20570;-87
2023/03/09 01:54:43;;;;;;;1.50;1.40;;;;;;;;;;5073310;28;20216;-90
2023/03/09 01:57:13;;;;;;;1.53;1.43;;;;;;;;;;5072164;28;20229;-87
2023/03/09 01:59:40;;;;;;;1.47;1.47;;;;;;;;;;5073663;28;20209;-88
2023/03/09 02:02:10;;;;;;;1.40;1.40;;;;;;;;;;5072174;28;20557;-87
2023/03/09 02:04:39;;;;;;;1.97;1.87;;;;;;;;;;5079499;28;20236;-87
2023/03/09 02:07:06;;;;;;;1.50;1.40;;;;;;;;;;5093115;28;20904;-87
2023/03/09 02:09:38;;;;;;;1.40;1.40;;;;;;;;;;5118469;22;20603;-84
2023/03/09 02:12:06;;;;;;;1.30;1.30;;;;;;;;;;5100115;28;20203;-85
2023/03/09 02:14:33;;;;;;;1.40;1.40;;;;;;;;;;5075874;28;20248;-85
2023/03/09 02:17:00;;;;;;;1.70;1.60;;;;;;;;;;5076472;28;20205;-85
2023/03/09 02:19:32;;;;;;;2.20;1.40;;;;;;;;;;5075987;28;20248;-86
2023/03/09 02:21:59;;;;;;;1.50;1.40;;;;;;;;;;5076339;28;20205;-85
2023/03/09 02:24:30;;;;;;;1.70;1.60;;;;;;;;;;5086533;28;20221;-84
2023/03/09 02:26:59;;;;;;;1.40;1.40;;;;;;;;;;5096647;28;20185;-84
2023/03/09 02:29:28;;;;;;;2.70;1.93;;;;;;;;;;5075336;28;20241;-84
2023/03/09 02:31:55;;;;;;;1.80;1.70;;;;;;;;;;5075826;28;20216;-84
2023/03/09 02:34:22;;;;;;;1.53;1.40;;;;;;;;;;5093282;28;20224;-84
2023/03/09 02:36:49;;;;;;;1.70;1.60;;;;;;;;;;5086297;28;20212;-84
2023/03/09 02:39:19;;;;;;;1.70;1.60;;;;;;;;;;5090376;28;20617;-85
2023/03/09 02:41:46;;;;;;;2.17;1.77;;;;;;;;;;5095570;28;20188;-84
2023/03/09 02:44:14;;;;;;;2.20;2.00;;;;;;;;;;5078374;28;20229;-84
2023/03/09 02:46:43;;;;;;;1.80;1.70;;;;;;;;;;5095320;28;20197;-84
2023/03/09 02:49:10;;;;;;;2.20;2.00;;;;;;;;;;5087057;28;20233;-84
2023/03/09 02:51:37;;;;;;;2.20;2.00;;;;;;;;;;5095492;28;20216;-84
2023/03/09 02:54:04;;;;;;;1.77;1.67;;;;;;;;;;5092232;28;20237;-84
2023/03/09 02:56:31;;;;;;;1.67;1.67;;;;;;;;;;5075508;28;20213;-85
2023/03/09 02:59:01;;;;;;;2.43;2.20;;;;;;;;;;5075072;28;20241;-84
2023/03/09 03:01:28;;;;;;;2.40;2.20;;;;;;;;;;5078973;28;20212;-84
2023/03/09 03:03:56;;;;;;;2.30;2.20;;;;;;;;;;5079283;28;20228;-84
2023/03/09 03:06:23;;;;;;;2.30;2.10;;;;;;;;;;5095815;28;20208;-85
2023/03/09 03:08:50;;;;;;;2.77;2.13;;;;;;;;;;5094974;28;20240;-84
2023/03/09 03:11:18;;;;;;;2.57;2.37;;;;;;;;;;5095079;28;20193;-84
2023/03/09 03:13:45;;;;;;;3.43;2.60;;;;;;;;;;5087292;28;20229;-84
2023/03/09 03:16:12;;;;;;;2.37;2.17;;;;;;;;;;5074978;28;20236;-85
2023/03/09 03:18:39;;;;;;;1.80;1.70;;;;;;;;;;5077088;28;20244;-84
2023/03/09 03:21:07;;;;;;;1.60;1.50;;;;;;;;;;5074784;28;20205;-84
2023/03/09 03:23:34;;;;;;;2.30;1.57;;;;;;;;;;5074310;28;20320;-84
2023/03/09 03:26:05;;;;;;;2.50;1.80;;;;;;;;;;5075084;28;20201;-84
2023/03/09 03:28:32;;;;;;;3.50;2.23;;;;;;;;;;5074436;28;20237;-84
2023/03/09 03:30:59;;;;;;;2.50;2.30;;;;;;;;;;5075052;28;20614;-85
2023/03/09 03:33:27;;;;;;;2.83;2.33;;;;;;;;;;5074068;28;20237;-85
2023/03/09 03:35:54;;;;;;;2.60;2.40;;;;;;;;;;5074553;28;20217;-84
2023/03/09 03:38:22;;;;;;;3.10;2.77;;;;;;;;;;5073940;28;20733;-85
2023/03/09 03:40:49;;;;;;;2.40;2.30;;;;;;;;;;5074388;28;20565;-84
2023/03/09 03:43:16;;;;;;;2.63;2.43;;;;;;;;;;5073905;28;20237;-84
2023/03/09 03:45:44;;;;;;;2.87;2.57;;;;;;;;;;5074814;28;20292;-83
2023/03/09 03:48:11;;;;;;;2.30;2.10;;;;;;;;;;5074035;28;20232;-84
2023/03/09 03:50:38;;;;;;;3.27;2.40;;;;;;;;;;5086238;28;20237;-84
2023/03/09 03:53:05;;;;;;;3.20;2.47;;;;;;;;;;5094041;28;20228;-85
2023/03/09 03:55:33;;;;;;;3.40;2.60;;;;;;;;;;5081089;28;20228;-85
2023/03/09 03:58:00;;;;;;;3.13;2.43;;;;;;;;;;5073953;28;20240;-85
2023/03/09 04:00:28;;;;;;;2.00;1.90;;;;;;;;;;5074217;28;20228;-85
2023/03/09 04:02:55;;;;;;;2.00;1.90;;;;;;;;;;5074187;28;20224;-85
2023/03/09 04:05:22;;;;;;;2.00;1.90;;;;;;;;;;5077110;28;20196;-84
2023/03/09 04:07:49;;;;;;;2.30;2.10;;;;;;;;;;5093666;28;20224;-85
2023/03/09 04:10:16;;;;;;;1.80;1.70;;;;;;;;;;5079530;28;20229;-84
2023/03/09 04:12:45;;;;;;;2.33;2.07;;;;;;;;;;5073540;28;20248;-85
2023/03/09 04:15:12;;;;;;;2.00;1.90;;;;;;;;;;5073885;28;20229;-85
2023/03/09 04:17:39;;;;;;;2.10;1.90;;;;;;;;;;5073825;28;20330;-84
2023/03/09 04:20:07;;;;;;;2.23;2.10;;;;;;;;;;5073540;28;20229;-83
2023/03/09 04:22:34;;;;;;;2.47;2.00;;;;;;;;;;5073218;28;20303;-84
2023/03/09 04:25:01;;;;;;;2.83;2.03;;;;;;;;;;5073599;28;20688;-84
2023/03/09 04:27:28;;;;;;;1.97;1.87;;;;;;;;;;5073333;28;20283;-85
2023/03/09 04:29:57;;;;;;;2.63;2.00;;;;;;;;;;5094314;28;20223;-84
2023/03/09 04:32:24;;;;;;;2.50;1.73;;;;;;;;;;5090299;28;20603;-86
2023/03/09 04:34:51;;;;;;;1.80;1.70;;;;;;;;;;5073644;28;20225;-86
2023/03/09 04:37:18;;;;;;;2.07;1.80;;;;;;;;;;5073500;28;20184;-86
2023/03/09 04:39:45;;;;;;;1.50;1.40;;;;;;;;;;5073687;28;20224;-85
2023/03/09 04:42:12;;;;;;;1.83;1.73;;;;;;;;;;5074561;28;20201;-86
2023/03/09 04:44:39;;;;;;;1.60;1.50;;;;;;;;;;5088267;28;20201;-87
2023/03/09 04:47:08;;;;;;;1.93;1.70;;;;;;;;;;5073195;28;20205;-86
2023/03/09 04:49:35;;;;;;;2.20;1.87;;;;;;;;;;5073605;28;20237;-86
2023/03/09 04:52:02;;;;;;;2.80;1.70;;;;;;;;;;5073235;28;20212;-86
2023/03/09 04:54:29;;;;;;;1.50;1.40;;;;;;;;;;5089597;28;20221;-86
2023/03/09 04:56:56;;;;;;;1.87;1.67;;;;;;;;;;5073315;28;20229;-86
2023/03/09 04:59:23;;;;;;;2.37;1.87;;;;;;;;;;5088796;28;20635;-86
2023/03/09 05:01:50;;;;;;;2.20;1.57;;;;;;;;;;5092790;28;20204;-86
2023/03/09 05:04:18;;;;;;;2.70;1.57;;;;;;;;;;5079135;28;20636;-86
2023/03/09 05:06:47;;;;;;;3.20;1.77;;;;;;;;;;5083581;28;20544;-86
2023/03/09 05:09:14;;;;;;;2.83;2.30;;;;;;;;;;5073277;28;20273;-84
2023/03/09 05:11:41;;;;;;;2.37;2.03;;;;;;;;;;5080157;28;20209;-86
2023/03/09 05:14:08;;;;;;;1.57;1.50;;;;;;;;;;5092825;28;20760;-86
2023/03/09 05:16:35;;;;;;;3.70;1.87;;;;;;;;;;5089501;28;20227;-85
2023/03/09 05:19:02;;;;;;;4.70;1.57;;;;;;;;;;5092382;28;20232;-85
2023/03/09 05:21:30;;;;;;;1.80;1.70;;;;;;;;;;5092888;28;20205;-84
2023/03/09 05:23:57;;;;;;;3.10;1.80;;;;;;;;;;5077362;28;20239;-85
2023/03/09 05:26:24;;;;;;;1.80;1.70;;;;;;;;;;5073244;28;20205;-85
2023/03/09 05:28:51;;;;;;;1.77;1.67;;;;;;;;;;5072094;28;20233;-85
2023/03/09 05:31:18;;;;;;;4.93;2.10;;;;;;;;;;5072820;28;20567;-86
2023/03/09 05:33:45;;;;;;;2.80;1.90;;;;;;;;;;5072525;28;20232;-85
2023/03/09 05:36:15;;;;;;;2.33;1.83;;;;;;;;;;5072795;28;20225;-83
2023/03/09 05:38:44;;;;;;;4.87;2.00;;;;;;;;;;5072138;28;20233;-85
2023/03/09 05:41:11;;;;;;;5.80;2.00;;;;;;;;;;5071837;28;20204;-83
2023/03/09 05:43:41;;;;;;;3.23;2.10;;;;;;;;;;5071986;28;20248;-86
2023/03/09 05:46:08;;;;;;;5.17;2.47;;;;;;;;;;5085598;28;20215;-86
2023/03/09 05:48:35;;;;;;;2.27;1.83;;;;;;;;;;5075866;28;20232;-86
2023/03/09 05:51:02;;;;;;;2.00;1.90;;;;;;;;;;5072756;28;20201;-87
2023/03/09 05:53:29;;;;;;;3.37;1.97;;;;;;;;;;5072392;28;20243;-87
2023/03/09 05:55:58;;;;;;;2.43;2.23;;;;;;;;;;5072545;28;20229;-85
2023/03/09 05:58:25;;;;;;;6.63;3.13;;;;;;;;;;5071657;28;20240;-84
2023/03/09 06:00:53;;;;;;;2.50;2.30;;;;;;;;;;5072750;28;20216;-86
2023/03/09 06:03:20;;;;;;;3.40;2.40;;;;;;;;;;5071856;28;20229;-85
2023/03/09 06:05:47;;;;;;;5.50;2.50;;;;;;;;;;5072960;28;20201;-86
2023/03/09 06:08:14;;;;;;;4.00;2.33;;;;;;;;;;5071885;28;20700;-85
2023/03/09 06:10:42;;;;;;;4.73;2.30;;;;;;;;;;5072137;28;20220;-85
2023/03/09 06:13:10;;;;;;;4.20;2.27;;;;;;;;;;5071996;28;20229;-86
2023/03/09 06:15:38;;;;;;;8.20;3.17;;;;;;;;;;5072039;28;20225;-84
2023/03/09 06:18:05;;;;;;;7.53;2.80;;;;;;;;;;5071901;28;20290;-84
2023/03/09 06:20:32;;;;;;;4.27;2.40;;;;;;;;;;5078768;28;20200;-84
2023/03/09 06:23:00;;;;;;;4.90;2.63;;;;;;;;;;5091169;28;20854;-85
2023/03/09 06:25:27;;;;;;;2.33;2.13;;;;;;;;;;5092028;28;20201;-84
2023/03/09 06:27:54;;;;;;;7.37;3.00;;;;;;;;;;5091407;28;20235;-84
2023/03/09 06:30:22;;;;;;;5.27;2.60;;;;;;;;;;5092035;28;20232;-84
2023/03/09 06:32:50;;;;;;;10.37;4.73;;;;;;;;;;5091095;28;20229;-85
2023/03/09 06:35:17;;;;;;;11.07;3.70;;;;;;;;;;5091899;28;20216;-84
2023/03/09 06:37:44;;;;;;;9.07;2.63;;;;;;;;;;5091311;28;20227;-84
2023/03/09 06:40:13;;;;;;;13.23;3.63;;;;;;;;;;5091791;28;20270;-84
2023/03/09 06:42:40;;;;;;;7.27;3.43;;;;;;;;;;5090941;28;20224;-84
2023/03/09 06:45:08;;;;;;;9.20;4.10;;;;;;;;;;5092023;28;20688;-84
2023/03/09 06:47:37;;;;;;;8.67;3.70;;;;;;;;;;5091288;28;20229;-84
2023/03/09 06:50:05;;;;;;;4.00;3.07;;;;;;;;;;5092020;28;20619;-86
2023/03/09 06:52:32;;;;;;;11.70;4.43;;;;;;;;;;5091191;28;20236;-84
2023/03/09 06:54:59;;;;;;;8.37;4.03;;;;;;;;;;5095278;28;20205;-85
2023/03/09 06:57:26;;;;;;;8.67;3.63;;;;;;;;;;5094974;28;20763;-85
2023/03/09 06:59:53;;;;;;;5.00;3.57;;;;;;;;;;5095411;28;20261;-85
2023/03/09 07:02:21;;;;;;;6.17;3.53;;;;;;;;;;5094826;28;20216;-86
2023/03/09 07:04:49;;;;;;;7.17;3.23;;;;;;;;;;5095635;28;20212;-85
2023/03/09 07:07:18;;;;;;;7.77;3.30;;;;;;;;;;5094918;28;20209;-85
2023/03/09 07:09:45;;;;;;;5.57;3.40;;;;;;;;;;5095211;28;20243;-86
2023/03/09 07:12:12;;;;;;;8.17;2.80;;;;;;;;;;5095236;28;20215;-85
2023/03/09 07:14:39;;;;;;;4.83;2.33;;;;;;;;;;5095176;28;20200;-86
2023/03/09 07:17:06;;;;;;;6.80;2.57;;;;;;;;;;5094803;28;20231;-85
2023/03/09 07:19:33;;;;;;;2.83;2.50;;;;;;;;;;5094951;28;20228;-84
2023/03/09 07:22:02;;;;;;;8.83;3.80;;;;;;;;;;5094769;28;20181;-84
2023/03/09 07:24:29;;;;;;;4.93;2.90;;;;;;;;;;5094700;28;20302;-85
2023/03/09 07:26:56;;;;;;;7.30;3.17;;;;;;;;;;5094971;28;20205;-85
2023/03/09 07:29:23;;;;;;;5.37;2.43;;;;;;;;;;5096765;28;20236;-85
2023/03/09 07:31:50;;;;;;;5.17;3.50;;;;;;;;;;5098841;28;20193;-85
2023/03/09 07:34:17;;;;;;;4.43;2.80;;;;;;;;;;5102080;28;20240;-86
2023/03/09 07:36:44;;;;;;;7.83;2.90;;;;;;;;;;5098688;28;20232;-86
2023/03/09 07:39:12;;;;;;;5.37;2.87;;;;;;;;;;5098320;28;20700;-85
2023/03/09 07:41:40;;;;;;;3.47;2.23;;;;;;;;;;5097636;28;20234;-86
2023/03/09 07:44:07;;;;;;;7.00;3.10;;;;;;;;;;5101142;28;20256;-84
2023/03/09 07:46:34;;;;;;;5.70;3.20;;;;;;;;;;5096230;28;20283;-85
2023/03/09 07:49:01;;;;;;;5.23;2.90;;;;;;;;;;5100877;28;20228;-86
2023/03/09 07:51:29;;;;;;;5.23;2.30;;;;;;;;;;5097876;28;20268;-84
2023/03/09 07:53:59;;;;;;;6.73;2.70;;;;;;;;;;5095292;27;20236;-85
2023/03/09 07:56:28;;;;;;;6.07;2.90;;;;;;;;;;5097023;28;20695;-84
2023/03/09 07:58:55;;;;;;;5.27;2.77;;;;;;;;;;5094655;28;20232;-85
2023/03/09 08:01:23;;;;;;;4.40;2.47;;;;;;;;;;5095361;28;20209;-85
2023/03/09 08:03:50;;;;;;;5.87;2.50;;;;;;;;;;5094607;28;20228;-85
2023/03/09 08:06:18;;;;;;;3.53;2.30;;;;;;;;;;5094739;28;20197;-85
2023/03/09 08:08:47;;;;;;;3.60;2.33;;;;;;;;;;5123439;22;20632;-90
2023/03/09 08:11:14;;;;;;;4.77;2.37;;;;;;;;;;5086325;28;20213;-90
2023/03/09 08:13:43;;;;;;;3.07;2.37;;;;;;;;;;5092070;28;20229;-88
2023/03/09 08:16:10;;;;;;;5.03;3.43;;;;;;;;;;5083445;28;20221;-89
2023/03/09 08:18:37;;;;;;;3.23;2.50;;;;;;;;;;5084994;28;20954;-88
2023/03/09 08:21:05;;;;;;;2.40;2.20;;;;;;;;;;5073354;28;20189;-88
2023/03/09 08:23:33;;;;;;;7.23;2.70;;;;;;;;;;5072279;28;20229;-88
2023/03/09 08:26:01;;;;;;;2.43;1.87;;;;;;;;;;5072926;28;20346;-89
2023/03/09 08:28:28;;;;;;;2.80;2.40;;;;;;;;;;5072171;28;20233;-88
2023/03/09 08:30:56;;;;;;;4.30;3.07;;;;;;;;;;5072608;28;20235;-88
2023/03/09 08:33:23;;;;;;;3.47;2.30;;;;;;;;;;5070232;28;20324;-89
2023/03/09 08:35:50;;;;;;;2.70;2.10;;;;;;;;;;5072407;28;20695;-89
2023/03/09 08:38:17;;;;;;;2.43;2.23;;;;;;;;;;5071607;28;20244;-89
2023/03/09 08:40:45;;;;;;;3.20;2.30;;;;;;;;;;5072438;28;20233;-88
2023/03/09 08:43:14;;;;;;;3.10;2.20;;;;;;;;;;5071879;28;20237;-87
2023/03/09 08:45:41;;;;;;;3.07;2.33;;;;;;;;;;5072534;28;20224;-89
2023/03/09 08:48:09;;;;;;;3.00;2.23;;;;;;;;;;5071564;28;20791;-88
2023/03/09 08:50:36;;;;;;;3.17;2.00;;;;;;;;;;5072041;28;20225;-89
2023/03/09 08:53:03;;;;;;;4.23;2.57;;;;;;;;;;5072926;28;20233;-90
2023/03/09 08:55:30;;;;;;;3.63;2.47;;;;;;;;;;5077128;28;20232;-89
2023/03/09 08:57:58;;;;;;;3.00;2.17;;;;;;;;;;5071359;28;20645;-89
2023/03/09 09:00:25;;;;;;;4.33;2.57;;;;;;;;;;5071956;28;20228;-89
2023/03/09 09:02:52;;;;;;;4.17;2.03;;;;;;;;;;5071483;28;20233;-89
2023/03/09 09:05:21;;;;;;;2.10;1.90;;;;;;;;;;5072186;28;20207;-88
2023/03/09 09:07:48;;;;;;;4.97;2.67;;;;;;;;;;5071249;28;20240;-91
2023/03/09 09:10:15;;;;;;;6.27;3.27;;;;;;;;;;5071704;28;20241;-89
2023/03/09 09:12:42;;;;;;;5.27;3.17;;;;;;;;;;5071016;28;20574;-89
2023/03/09 09:15:12;;;;;;;2.93;2.43;;;;;;;;;;5072118;28;20178;-88
2023/03/09 09:17:39;;;;;;;3.77;2.47;;;;;;;;;;5070522;28;20881;-88
2023/03/09 09:20:07;;;;;;;5.17;3.00;;;;;;;;;;5071799;28;20225;-88
2023/03/09 09:22:36;;;;;;;2.40;2.30;;;;;;;;;;5071330;28;20233;-88
2023/03/09 09:25:03;;;;;;;3.83;2.63;;;;;;;;;;5071889;28;20213;-88
2023/03/09 09:27:30;;;;;;;3.20;2.90;;;;;;;;;;5071475;28;20229;-88
2023/03/09 09:29:57;;;;;;;5.00;3.20;;;;;;;;;;5068847;28;20229;-88
2023/03/09 09:32:24;;;;;;;5.37;2.90;;;;;;;;;;5070918;28;20225;-89
2023/03/09 09:34:53;;;;;;;4.73;3.10;;;;;;;;;;5071105;28;20205;-87
2023/03/09 09:37:20;;;;;;;6.07;3.30;;;;;;;;;;5070649;28;20227;-89
2023/03/09 09:39:48;;;;;;;7.70;3.57;;;;;;;;;;5070806;28;20595;-89
2023/03/09 09:42:24;;;;;;;3.57;2.47;;;;;;;;;;5070960;28;20681;-88
2023/03/09 09:44:52;;;;;;;5.17;2.93;;;;;;;;;;5072356;28;20205;-89
2023/03/09 09:47:21;;;;;;;7.53;3.00;;;;;;;;;;5075036;28;20202;-88
2023/03/09 09:49:49;;;;;;;3.10;2.70;;;;;;;;;;5079531;28;20737;-89
2023/03/09 09:52:21;;;;;;;9.07;3.13;;;;;;;;;;5072112;28;20209;-89
2023/03/09 09:54:53;;;;;;;3.63;2.07;;;;;;;;;;5077006;28;20189;-88
2023/03/09 09:57:21;;;;;;;8.20;2.60;;;;;;;;;;5077722;28;20693;-88
2023/03/09 09:59:52;;;;;;;5.37;2.83;;;;;;;;;;5044168;28;20255;-88
2023/03/09 10:02:23;;;;;;;4.27;2.80;;;;;;;;;;5035240;28;20187;-90
2023/03/09 10:04:55;;;;;;;6.80;3.23;;;;;;;;;;5038592;28;20576;-89
2023/03/09 10:07:24;;;;;;;6.10;3.10;;;;;;;;;;5047873;28;20197;-90
2023/03/09 10:09:54;;;;;;;5.40;3.17;;;;;;;;;;5078548;28;20300;-90
2023/03/09 10:12:21;;;;;;;4.60;3.07;;;;;;;;;;5072894;28;20193;-89
2023/03/09 10:14:53;;;;;;;6.87;3.40;;;;;;;;;;5062425;28;20214;-90
2023/03/09 10:17:26;;;;;;;5.57;2.97;;;;;;;;;;5050775;28;20232;-91
2023/03/09 10:19:53;;;;;;;5.80;2.40;;;;;;;;;;5064849;28;20229;-90
2023/03/09 10:22:24;;;;;;;5.73;2.80;;;;;;;;;;5059502;28;20210;-90
2023/03/09 10:24:53;;;;;;;8.67;3.20;;;;;;;;;;5051710;28;20264;-89
2023/03/09 10:27:25;;;;;;;9.13;3.93;;;;;;;;;;5054279;28;20666;-90
2023/03/09 10:29:56;;;;;;;4.20;2.43;;;;;;;;;;5075714;28;20784;-88
2023/03/09 10:32:30;;;;;;;6.33;2.87;;;;;;;;;;5075136;28;20328;-89
2023/03/09 10:34:59;;;;;;;8.00;3.00;;;;;;;;;;5075550;28;20233;-89
2023/03/09 10:37:28;;;;;;;3.53;2.77;;;;;;;;;;5074779;28;20237;-90
2023/03/09 10:39:58;;;;;;;4.97;2.57;;;;;;;;;;5075214;28;20221;-89
2023/03/09 10:42:26;;;;;;;6.80;3.20;;;;;;;;;;5074751;28;20237;-89
2023/03/09 10:45:01;;;;;;;5.50;2.80;;;;;;;;;;5074779;28;20544;-89
2023/03/09 10:47:34;;;;;;;6.87;3.20;;;;;;;;;;5074419;28;20704;-88
2023/03/09 10:50:08;;;;;;;6.90;3.37;;;;;;;;;;5074653;28;20243;-89
2023/03/09 10:52:35;;;;;;;8.30;3.60;;;;;;;;;;5075165;28;20233;-88
2023/03/09 10:55:22;;;;;;;5.73;2.90;;;;;;;;;;5074879;28;20249;-91
2023/03/09 10:57:56;;;;;;;5.23;2.63;;;;;;;;;;5073797;28;20245;-89
2023/03/09 11:00:23;;;;;;;5.07;2.57;;;;;;;;;;5074231;28;20229;-88
2023/03/09 11:02:52;;;;;;;4.60;2.50;;;;;;;;;;5075679;28;20244;-90
2023/03/09 11:05:21;;;;;;;5.93;3.53;;;;;;;;;;5074920;28;20201;-89
2023/03/09 11:07:52;;;;;;;4.43;1.93;;;;;;;;;;5074319;28;20224;-89
2023/03/09 11:10:28;;;;;;;5.07;2.30;;;;;;;;;;5074267;28;20237;-89
2023/03/09 11:12:55;;;;;;;3.93;2.23;;;;;;;;;;5074225;28;20225;-89
2023/03/09 11:15:28;;;;;;;2.50;2.30;;;;;;;;;;5074191;28;20217;-89
2023/03/09 11:17:56;;;;;;;8.23;2.80;;;;;;;;;;5073806;28;20264;-89
2023/03/09 11:20:25;;;;;;;6.43;2.57;;;;;;;;;;5074290;28;20225;-89
2023/03/09 11:22:54;;;;;;;6.73;2.73;;;;;;;;;;5073839;28;20233;-89
2023/03/09 11:25:25;;;;;;;4.80;2.50;;;;;;;;;;5074244;28;20209;-90
2023/03/09 11:27:57;;;;;;;6.27;2.30;;;;;;;;;;5073496;28;20290;-90
2023/03/09 11:30:26;;;;;;;5.10;2.37;;;;;;;;;;5074403;28;20233;-91
2023/03/09 11:32:54;;;;;;;2.47;1.63;;;;;;;;;;5073578;28;20225;-90
2023/03/09 11:35:23;;;;;;;3.90;2.00;;;;;;;;;;5073432;28;20236;-90
2023/03/09 11:37:52;;;;;;;6.33;2.20;;;;;;;;;;5072814;28;20233;-89
2023/03/09 11:40:20;;;;;;;3.40;2.10;;;;;;;;;;5033122;28;20223;-89
2023/03/09 11:42:49;;;;;;;4.87;1.90;;;;;;;;;;5035490;28;20235;-86
2023/03/09 11:45:19;;;;;;;4.23;1.90;;;;;;;;;;5073289;28;20232;-86
2023/03/09 11:47:50;;;;;;;2.43;2.10;;;;;;;;;;5073028;28;20235;-87
2023/03/09 11:50:19;;;;;;;9.33;2.97;;;;;;;;;;5073179;28;20582;-87
2023/03/09 11:52:48;;;;;;;4.57;2.37;;;;;;;;;;5072577;28;20700;-85
2023/03/09 11:55:17;;;;;;;5.23;3.67;;;;;;;;;;5073275;28;20212;-86
2023/03/09 11:57:45;;;;;;;2.87;2.50;;;;;;;;;;5072607;28;20259;-84
2023/03/09 12:00:14;;;;;;;4.97;2.23;;;;;;;;;;5072508;28;20759;-83
2023/03/09 12:02:48;;;;;;;2.50;1.80;;;;;;;;;;5072177;28;20603;-84
2023/03/09 12:05:16;;;;;;;5.57;2.40;;;;;;;;;;5072515;28;20213;-83
2023/03/09 12:07:49;;;;;;;5.13;2.13;;;;;;;;;;5071972;28;20232;-84
2023/03/09 12:10:19;;;;;;;6.00;2.60;;;;;;;;;;5072354;28;20312;-84
2023/03/09 12:12:48;;;;;;;3.97;2.10;;;;;;;;;;5071579;28;20236;-84
2023/03/09 12:15:18;;;;;;;5.60;2.20;;;;;;;;;;5072986;28;20194;-83
2023/03/09 12:17:50;;;;;;;6.53;2.27;;;;;;;;;;5071752;28;20237;-84
2023/03/09 12:20:21;;;;;;;4.07;2.73;;;;;;;;;;5072406;28;20227;-84
2023/03/09 12:22:48;;;;;;;2.93;2.10;;;;;;;;;;5072031;28;20237;-83
2023/03/09 12:25:18;;;;;;;2.33;1.70;;;;;;;;;;5072343;28;20205;-83
2023/03/09 12:27:50;;;;;;;3.70;2.00;;;;;;;;;;5071753;28;20282;-83
2023/03/09 12:30:24;;;;;;;6.23;2.80;;;;;;;;;;5072194;28;20221;-83
2023/03/09 12:32:56;;;;;;;3.53;2.50;;;;;;;;;;5071799;28;20321;-83
2023/03/09 12:35:41;;;;;;;5.53;2.60;;;;;;;;;;5072396;28;20262;-83
2023/03/09 12:38:20;;;;;;;3.73;2.67;;;;;;;;;;5071776;28;20599;-84
2023/03/09 12:40:47;;;;;;;3.90;2.10;;;;;;;;;;5072099;28;20282;-84
2023/03/09 12:43:34;;;;;;;6.53;2.60;;;;;;;;;;5061455;28;20324;-84
2023/03/09 12:46:30;;;;;;;5.33;2.57;;;;;;;;;;5052235;28;20291;-84
2023/03/09 12:48:59;;;;;;;4.43;2.00;;;;;;;;;;5053823;28;20237;-84
2023/03/09 12:51:32;;;;;;;5.83;2.07;;;;;;;;;;5071923;28;20189;-84
2023/03/09 12:54:01;;;;;;;6.53;2.33;;;;;;;;;;5071524;28;20233;-85
2023/03/09 12:56:28;;;;;;;7.80;2.53;;;;;;;;;;5071999;28;20240;-85
2023/03/09 12:58:56;;;;;;;4.17;1.90;;;;;;;;;;5071235;28;20705;-85
2023/03/09 13:01:32;;;;;;;4.50;2.40;;;;;;;;;;5072218;28;20212;-85
2023/03/09 13:04:14;;;;;;;5.33;2.30;;;;;;;;;;5071744;28;20237;-85
2023/03/09 13:06:42;;;;;;;4.87;1.93;;;;;;;;;;5056194;28;20217;-85
2023/03/09 13:09:18;;;;;;;6.17;1.97;;;;;;;;;;5051095;28;20244;-85
2023/03/09 13:11:46;;;;;;;2.13;1.43;;;;;;;;;;5051912;28;20885;-84
2023/03/09 13:14:15;;;;;;;7.17;2.40;;;;;;;;;;5052908;28;20706;-84
2023/03/09 13:17:00;;;;;;;3.00;2.07;;;;;;;;;;5052904;28;20217;-86
2023/03/09 13:19:39;;;;;;;3.97;2.20;;;;;;;;;;5055792;28;20254;-84
2023/03/09 13:22:16;;;;;;;3.33;1.63;;;;;;;;;;5062488;28;20190;-85
2023/03/09 13:24:44;;;;;;;2.00;1.70;;;;;;;;;;5051871;28;20616;-85
2023/03/09 13:27:15;;;;;;;3.87;1.67;;;;;;;;;;5051895;28;20213;-86
2023/03/09 13:29:44;;;;;;;3.57;1.50;;;;;;;;;;5052436;28;20693;-86
2023/03/09 13:32:20;;;;;;;4.63;1.73;;;;;;;;;;5052423;28;20214;-86
2023/03/09 13:34:49;;;;;;;3.00;1.60;;;;;;;;;;5052278;28;20201;-85
2023/03/09 13:37:18;;;;;;;2.07;1.80;;;;;;;;;;5031249;28;20198;-85
2023/03/09 13:39:57;;;;;;;4.67;1.60;;;;;;;;;;5045292;28;20221;-85
2023/03/09 13:42:24;;;;;;;6.67;1.73;;;;;;;;;;5046501;28;20233;-84
2023/03/09 13:44:53;;;;;;;4.90;2.00;;;;;;;;;;5064403;28;20201;-84
2023/03/09 13:47:23;;;;;;;6.47;1.87;;;;;;;;;;5051162;28;20208;-83
2023/03/09 13:49:52;;;;;;;2.90;1.33;;;;;;;;;;5055830;28;20697;-84
2023/03/09 13:52:19;;;;;;;2.10;1.47;;;;;;;;;;5050965;28;20202;-88
2023/03/09 13:54:50;;;;;;;2.00;1.27;;;;;;;;;;5050197;28;20296;-86
2023/03/09 13:57:18;;;;;;;1.77;1.33;;;;;;;;;;5049307;28;20213;-85
2023/03/09 13:59:48;;;;;;;4.77;1.50;;;;;;;;;;5050773;28;20575;-85
2023/03/09 14:02:15;;;;;;;4.53;1.63;;;;;;;;;;5038526;28;20206;-85
2023/03/09 14:04:46;;;;;;;4.77;1.77;;;;;;;;;;5071626;28;20201;-86
2023/03/09 14:07:17;;;;;;;1.47;1.30;;;;;;;;;;5066570;28;20194;-86
2023/03/09 14:09:49;;;;;;;4.27;1.73;;;;;;;;;;5069053;23;20234;-84
2023/03/09 14:12:23;;;;;;;2.40;1.60;;;;;;;;;;5053954;28;20201;-81
2023/03/09 14:14:50;;;;;;;3.07;1.63;;;;;;;;;;5054865;28;20205;-81
2023/03/09 14:17:18;;;;;;;2.17;1.90;;;;;;;;;;5040869;28;20229;-82
2023/03/09 14:19:46;;;;;;;3.10;1.80;;;;;;;;;;5046509;28;20230;-82
2023/03/09 14:22:20;;;;;;;2.47;1.30;;;;;;;;;;5055867;28;20682;-83
2023/03/09 14:24:47;;;;;;;3.70;1.23;;;;;;;;;;5055447;28;20217;-82
2023/03/09 14:27:21;;;;;;;3.87;1.50;;;;;;;;;;5043310;28;20659;-82
2023/03/09 14:29:48;;;;;;;3.00;1.53;;;;;;;;;;5041346;28;20724;-82
2023/03/09 14:32:27;;;;;;;2.17;1.63;;;;;;;;;;5054321;28;20570;-82
2023/03/09 14:34:54;;;;;;;2.57;1.70;;;;;;;;;;5043444;28;20194;-83
2023/03/09 14:37:24;;;;;;;3.67;1.47;;;;;;;;;;5043188;28;20248;-84
2023/03/09 14:39:51;;;;;;;2.30;1.60;;;;;;;;;;5041958;28;20751;-87
2023/03/09 14:42:20;;;;;;;3.70;1.57;;;;;;;;;;5053783;28;20206;-85
2023/03/09 14:44:48;;;;;;;4.00;1.83;;;;;;;;;;5050155;28;20657;-82
2023/03/09 14:47:16;;;;;;;2.03;1.20;;;;;;;;;;5053989;28;20217;-82
2023/03/09 14:49:43;;;;;;;3.60;1.63;;;;;;;;;;5037584;28;20268;-83
2023/03/09 14:52:12;;;;;;;3.40;1.70;;;;;;;;;;5049480;28;20202;-83